Time;durP1;ratioP1;P1;durP2;ratioP2;P2;SDS_P1;SDS_P2;PMS_P1;PMS_P2;Temp;Humidity;BMP_temperature;BMP_pressure;BME280_temperature;BME280_humidity;BME280_pressure;Samples;Min_cycle;Max_cycle;Signal;HPM_P1;HPM_P2
2023/04/18 00:02:09;;;;;;;10.68;9.30;;;8.20;99.90;;;;;;5088995;28;20044;-59
2023/04/18 00:04:35;;;;;;;13.00;9.30;;;8.10;99.90;;;;;;5089290;28;20131;-58
2023/04/18 00:07:00;;;;;;;13.23;10.43;;;8.10;99.90;;;;;;5089137;28;20285;-59
2023/04/18 00:09:26;;;;;;;14.07;9.50;;;8.10;99.90;;;;;;5089729;28;20381;-59
2023/04/18 00:11:52;;;;;;;15.23;9.73;;;8.00;99.90;;;;;;5103785;28;20058;-58
2023/04/18 00:14:19;;;;;;;12.63;9.52;;;8.00;99.90;;;;;;5104045;28;20123;-58
2023/04/18 00:16:45;;;;;;;12.50;10.30;;;7.90;99.90;;;;;;5112496;28;20043;-58
2023/04/18 00:19:11;;;;;;;14.93;10.32;;;7.90;99.90;;;;;;5091898;28;20040;-59
2023/04/18 00:21:38;;;;;;;13.68;9.55;;;7.90;99.90;;;;;;5092769;28;20089;-58
2023/04/18 00:24:04;;;;;;;12.75;8.38;;;7.90;99.90;;;;;;5091827;28;20153;-59
2023/04/18 00:26:29;;;;;;;12.68;10.00;;;7.90;99.90;;;;;;5092234;28;20123;-59
2023/04/18 00:28:55;;;;;;;17.90;9.40;;;7.80;99.90;;;;;;5091844;28;20073;-59
2023/04/18 00:31:20;;;;;;;13.17;10.53;;;7.80;99.90;;;;;;5111008;28;20437;-56
2023/04/18 00:33:46;;;;;;;14.90;9.10;;;7.80;99.90;;;;;;5112006;28;20039;-59
2023/04/18 00:36:12;;;;;;;15.80;10.37;;;7.80;99.90;;;;;;5113100;28;20039;-58
2023/04/18 00:38:37;;;;;;;18.47;9.13;;;7.70;99.90;;;;;;5111502;28;20122;-58
2023/04/18 00:41:03;;;;;;;12.53;9.13;;;7.70;99.90;;;;;;5112225;27;20385;-59
2023/04/18 00:43:28;;;;;;;15.17;9.20;;;7.70;99.90;;;;;;5112094;28;20332;-59
2023/04/18 00:45:55;;;;;;;14.07;9.57;;;7.70;99.90;;;;;;5112701;28;20532;-57
2023/04/18 00:48:22;;;;;;;17.02;9.55;;;7.60;99.90;;;;;;5111223;28;20435;-60
2023/04/18 00:50:47;;;;;;;11.70;9.55;;;7.60;99.90;;;;;;5111318;27;20028;-59
2023/04/18 00:53:14;;;;;;;13.13;8.60;;;7.60;99.90;;;;;;5110550;28;20085;-59
2023/04/18 00:55:40;;;;;;;13.43;9.95;;;7.60;99.90;;;;;;5110449;28;20554;-59
2023/04/18 00:58:06;;;;;;;12.68;8.27;;;7.60;99.90;;;;;;5110255;28;20044;-58
2023/04/18 01:00:31;;;;;;;13.70;9.68;;;7.60;99.90;;;;;;5112241;28;20453;-58
2023/04/18 01:02:58;;;;;;;12.38;8.90;;;7.60;99.90;;;;;;5112300;27;20114;-58
2023/04/18 01:05:25;;;;;;;9.40;8.27;;;7.60;99.90;;;;;;5112087;28;20050;-58
2023/04/18 01:07:51;;;;;;;19.10;10.55;;;7.60;99.90;;;;;;5111270;28;20070;-57
2023/04/18 01:10:17;;;;;;;13.93;10.13;;;7.60;99.90;;;;;;5112289;28;20137;-57
2023/04/18 01:12:43;;;;;;;11.48;9.73;;;7.50;99.90;;;;;;5112035;28;20744;-57
2023/04/18 01:15:09;;;;;;;13.00;9.97;;;7.50;99.90;;;;;;5095702;28;20047;-58
2023/04/18 01:17:34;;;;;;;18.27;10.95;;;7.50;99.90;;;;;;5101249;28;20274;-57
2023/04/18 01:20:01;;;;;;;12.27;10.15;;;7.50;99.90;;;;;;5107346;28;20110;-59
2023/04/18 01:22:29;;;;;;;14.38;10.57;;;7.40;99.90;;;;;;5103856;28;20036;-57
2023/04/18 01:24:55;;;;;;;20.73;10.13;;;7.40;99.90;;;;;;5095008;28;20072;-58
2023/04/18 01:27:21;;;;;;;16.80;11.10;;;7.40;99.90;;;;;;5093914;28;20036;-58
2023/04/18 01:29:47;;;;;;;14.10;9.97;;;7.40;99.90;;;;;;5096621;28;20032;-58
2023/04/18 01:32:13;;;;;;;14.30;10.23;;;7.40;99.90;;;;;;5107433;28;20035;-59
2023/04/18 01:34:38;;;;;;;13.80;9.25;;;7.40;99.90;;;;;;5111600;28;20043;-59
2023/04/18 01:37:04;;;;;;;14.87;9.57;;;7.40;99.90;;;;;;5099538;28;20115;-58
2023/04/18 01:39:29;;;;;;;18.10;11.43;;;7.40;99.90;;;;;;5089964;28;20043;-58
2023/04/18 01:41:55;;;;;;;15.85;10.63;;;7.40;99.90;;;;;;5090564;28;20450;-58
2023/04/18 01:44:21;;;;;;;14.47;10.17;;;7.40;99.90;;;;;;5104524;28;20039;-59
2023/04/18 01:46:46;;;;;;;11.00;9.60;;;7.40;99.90;;;;;;5111426;28;20036;-59
2023/04/18 01:49:12;;;;;;;12.20;10.47;;;7.40;99.90;;;;;;5110013;28;20063;-57
2023/04/18 01:51:37;;;;;;;17.73;10.50;;;7.40;99.90;;;;;;5111361;28;20032;-58
2023/04/18 01:54:03;;;;;;;12.27;10.75;;;7.40;99.90;;;;;;5109962;28;20112;-59
2023/04/18 01:56:29;;;;;;;14.10;10.77;;;7.40;99.90;;;;;;5110453;28;20043;-59
2023/04/18 01:58:55;;;;;;;16.30;11.15;;;7.40;99.90;;;;;;5109787;28;20114;-58
2023/04/18 02:01:21;;;;;;;15.77;10.30;;;7.40;99.90;;;;;;5109480;28;20039;-58
2023/04/18 02:03:46;;;;;;;12.63;11.10;;;7.40;99.90;;;;;;5102136;28;20055;-57
2023/04/18 02:06:12;;;;;;;19.50;10.63;;;7.30;99.90;;;;;;5090763;28;20032;-56
2023/04/18 02:08:37;;;;;;;17.33;11.90;;;7.30;99.90;;;;;;5102119;28;20084;-59
2023/04/18 02:11:04;;;;;;;16.53;11.43;;;7.30;99.90;;;;;;5110954;28;20070;-59
2023/04/18 02:13:29;;;;;;;25.20;10.73;;;7.30;99.90;;;;;;5110680;27;20412;-58
2023/04/18 02:15:55;;;;;;;17.90;11.57;;;7.30;99.90;;;;;;5111088;28;20111;-58
2023/04/18 02:18:23;;;;;;;13.10;11.47;;;7.30;99.90;;;;;;5109903;28;20042;-58
2023/04/18 02:20:50;;;;;;;17.67;12.27;;;7.30;99.90;;;;;;5096778;28;20386;-58
2023/04/18 02:23:16;;;;;;;13.40;11.07;;;7.20;99.90;;;;;;5090155;28;20116;-59
2023/04/18 02:25:41;;;;;;;17.75;11.15;;;7.20;99.90;;;;;;5090009;28;20115;-59
2023/04/18 02:28:07;;;;;;;14.47;11.60;;;7.20;99.90;;;;;;5089563;28;20508;-58
2023/04/18 02:30:32;;;;;;;19.20;12.40;;;7.20;99.90;;;;;;5093236;28;20039;-59
2023/04/18 02:32:58;;;;;;;15.87;10.73;;;7.20;99.90;;;;;;5091424;28;20039;-59
2023/04/18 02:35:24;;;;;;;15.33;12.43;;;7.10;99.90;;;;;;5091055;28;20965;-58
2023/04/18 02:37:50;;;;;;;23.00;11.20;;;7.10;99.90;;;;;;5099958;28;20560;-59
2023/04/18 02:40:16;;;;;;;13.90;12.38;;;7.10;99.90;;;;;;5089253;28;20115;-57
2023/04/18 02:42:42;;;;;;;15.82;12.10;;;7.10;99.90;;;;;;5104480;28;20123;-58
2023/04/18 02:45:08;;;;;;;17.50;12.70;;;7.10;99.90;;;;;;5110296;28;20040;-58
2023/04/18 02:47:34;;;;;;;15.88;12.10;;;7.10;99.90;;;;;;5109108;28;20084;-57
2023/04/18 02:50:00;;;;;;;15.73;11.05;;;7.10;99.90;;;;;;5108428;28;20085;-59
2023/04/18 02:52:25;;;;;;;15.97;11.13;;;7.10;99.90;;;;;;5109341;28;20512;-59
2023/04/18 02:54:51;;;;;;;13.60;10.80;;;7.10;99.90;;;;;;5109508;28;20448;-58
2023/04/18 02:57:17;;;;;;;16.48;11.63;;;7.00;99.90;;;;;;5110424;28;20043;-58
2023/04/18 02:59:42;;;;;;;15.03;11.10;;;7.00;99.90;;;;;;5108749;28;20027;-58
2023/04/18 03:02:08;;;;;;;17.93;12.53;;;7.00;99.90;;;;;;5110288;28;20090;-58
2023/04/18 03:04:34;;;;;;;14.87;11.53;;;7.00;99.90;;;;;;5110049;28;20044;-57
2023/04/18 03:07:00;;;;;;;15.50;12.82;;;7.00;99.90;;;;;;5110223;28;20096;-59
2023/04/18 03:09:26;;;;;;;21.95;12.77;;;7.00;99.90;;;;;;5108394;28;20493;-57
2023/04/18 03:11:51;;;;;;;20.42;12.63;;;7.00;99.90;;;;;;5108492;28;20108;-59
2023/04/18 03:14:17;;;;;;;16.83;12.37;;;7.00;99.90;;;;;;5110078;28;20044;-59
2023/04/18 03:16:43;;;;;;;17.07;12.07;;;7.00;99.90;;;;;;5110142;28;20266;-58
2023/04/18 03:19:09;;;;;;;15.55;11.77;;;6.90;99.90;;;;;;5108809;28;20071;-57
2023/04/18 03:21:35;;;;;;;15.38;13.27;;;6.90;99.90;;;;;;5109984;28;20078;-59
2023/04/18 03:24:00;;;;;;;17.10;12.20;;;6.90;99.90;;;;;;5109591;28;20036;-57
2023/04/18 03:26:27;;;;;;;20.80;12.65;;;6.90;99.90;;;;;;5109469;28;20092;-57
2023/04/18 03:28:53;;;;;;;14.90;11.63;;;6.90;99.90;;;;;;5108916;28;20046;-59
2023/04/18 03:31:19;;;;;;;15.45;12.52;;;7.00;99.90;;;;;;5096233;28;20122;-58
2023/04/18 03:33:45;;;;;;;19.77;13.13;;;7.00;99.90;;;;;;5089564;28;20036;-57
2023/04/18 03:36:14;;;;;;;;;;;7.00;99.90;;;;;;5089696;28;20528;-57
2023/04/18 03:38:40;;;;;;;16.63;12.07;;;7.00;99.90;;;;;;5093139;28;19920;-59
2023/04/18 03:41:06;;;;;;;18.73;12.82;;;7.00;99.90;;;;;;5109954;28;20035;-59
2023/04/18 03:43:31;;;;;;;17.07;13.27;;;7.00;99.90;;;;;;5108056;28;20544;-57
2023/04/18 03:45:57;;;;;;;19.80;13.57;;;7.00;99.90;;;;;;5109898;28;20485;-58
2023/04/18 03:48:23;;;;;;;20.23;14.07;;;7.10;99.90;;;;;;5109569;28;20118;-59
2023/04/18 03:50:49;;;;;;;21.57;13.63;;;7.10;99.90;;;;;;5113392;28;20039;-58
2023/04/18 03:53:15;;;;;;;17.85;12.88;;;7.10;99.90;;;;;;5111839;28;20047;-58
2023/04/18 03:55:41;;;;;;;19.38;12.27;;;7.10;99.90;;;;;;5113656;28;20032;-58
2023/04/18 03:58:06;;;;;;;19.35;13.45;;;7.10;99.90;;;;;;5112416;28;20114;-59
2023/04/18 04:00:32;;;;;;;17.70;12.77;;;7.10;99.90;;;;;;5113488;28;20036;-59
2023/04/18 04:02:57;;;;;;;16.35;12.43;;;7.10;99.90;;;;;;5112936;28;20066;-57
2023/04/18 04:05:23;;;;;;;18.73;13.20;;;7.10;99.90;;;;;;5113568;28;20039;-57
2023/04/18 04:07:49;;;;;;;17.47;11.63;;;7.10;99.90;;;;;;5111781;28;20456;-58
2023/04/18 04:10:14;;;;;;;18.63;13.47;;;7.20;99.90;;;;;;5113298;28;20122;-59
2023/04/18 04:12:40;;;;;;;15.35;12.27;;;7.10;99.90;;;;;;5113617;28;20639;-59
2023/04/18 04:15:06;;;;;;;15.77;10.83;;;7.20;99.90;;;;;;5113077;28;20036;-58
2023/04/18 04:17:32;;;;;;;16.52;12.20;;;7.10;99.90;;;;;;5112024;28;20040;-59
2023/04/18 04:19:57;;;;;;;16.53;12.47;;;7.10;99.90;;;;;;5112812;28;20043;-59
2023/04/18 04:22:23;;;;;;;15.03;12.37;;;7.10;99.90;;;;;;5112928;28;20078;-59
2023/04/18 04:24:48;;;;;;;16.03;11.07;;;7.20;99.90;;;;;;5111888;28;20100;-57
2023/04/18 04:27:17;;;;;;;16.47;12.10;;;7.20;99.90;;;;;;5113389;28;20035;-57
2023/04/18 04:29:43;;;;;;;17.40;12.32;;;7.20;99.90;;;;;;5111609;28;20452;-59
2023/04/18 04:32:08;;;;;;;13.70;11.45;;;7.20;99.90;;;;;;5105714;28;20036;-57
2023/04/18 04:34:35;;;;;;;16.13;10.77;;;7.20;99.90;;;;;;5092547;28;20097;-58
2023/04/18 04:37:01;;;;;;;15.35;11.50;;;7.20;99.90;;;;;;5092412;28;20453;-58
2023/04/18 04:39:27;;;;;;;15.85;10.93;;;7.20;99.90;;;;;;5091202;28;20437;-58
2023/04/18 04:41:52;;;;;;;15.27;11.23;;;7.20;99.90;;;;;;5092511;28;20127;-59
2023/04/18 04:44:18;;;;;;;14.80;11.33;;;7.20;99.90;;;;;;5104985;28;20035;-57
2023/04/18 04:46:44;;;;;;;16.67;11.25;;;7.20;99.90;;;;;;5112547;28;20039;-58
2023/04/18 04:49:10;;;;;;;14.98;10.68;;;7.20;99.90;;;;;;5099677;28;20039;-57
2023/04/18 04:51:36;;;;;;;18.92;12.88;;;7.20;99.90;;;;;;5108269;28;20034;-59
2023/04/18 04:54:02;;;;;;;17.08;13.10;;;7.20;99.90;;;;;;5101117;28;20126;-58
2023/04/18 04:56:28;;;;;;;16.25;13.70;;;7.30;99.90;;;;;;5111010;28;20523;-58
2023/04/18 04:58:54;;;;;;;23.23;13.30;;;7.20;99.90;;;;;;5097233;28;20040;-58
2023/04/18 05:01:20;;;;;;;19.17;13.68;;;7.30;99.90;;;;;;5091801;28;20110;-59
2023/04/18 05:03:46;;;;;;;19.00;14.05;;;7.30;99.90;;;;;;5091703;28;20036;-57
2023/04/18 05:06:12;;;;;;;21.77;16.53;;;7.30;99.90;;;;;;5091122;28;20575;-58
2023/04/18 05:08:38;;;;;;;18.95;13.98;;;7.20;99.90;;;;;;5090944;28;20122;-59
2023/04/18 05:11:04;;;;;;;24.70;16.43;;;7.30;99.90;;;;;;5105312;28;20169;-59
2023/04/18 05:13:30;;;;;;;20.70;15.13;;;7.30;99.90;;;;;;5111774;28;20789;-59
2023/04/18 05:15:58;;;;;;;20.80;16.00;;;7.30;99.90;;;;;;5110597;28;20284;-58
2023/04/18 05:18:23;;;;;;;22.60;14.98;;;7.30;99.90;;;;;;5110716;28;20047;-57
2023/04/18 05:20:49;;;;;;;18.83;14.40;;;7.30;99.90;;;;;;5111830;28;20035;-56
2023/04/18 05:23:15;;;;;;;22.00;16.23;;;7.30;99.90;;;;;;5111999;28;20272;-59
2023/04/18 05:25:40;;;;;;;26.77;16.47;;;7.40;99.90;;;;;;5112016;28;20273;-59
2023/04/18 05:28:07;;;;;;;25.48;15.75;;;7.30;99.90;;;;;;5110604;28;20081;-59
2023/04/18 05:30:33;;;;;;;21.17;15.57;;;7.30;99.90;;;;;;5111622;28;20040;-58
2023/04/18 05:32:58;;;;;;;24.40;14.82;;;7.30;99.90;;;;;;5111512;28;20043;-57
2023/04/18 05:35:24;;;;;;;21.90;15.80;;;7.40;99.90;;;;;;5109123;28;20067;-58
2023/04/18 05:37:50;;;;;;;18.73;15.57;;;7.30;99.90;;;;;;5097092;28;20101;-59
2023/04/18 05:40:16;;;;;;;22.95;15.85;;;7.30;99.90;;;;;;5102853;28;20415;-60
2023/04/18 05:42:41;;;;;;;21.20;16.33;;;7.40;99.90;;;;;;5095908;28;20047;-57
2023/04/18 05:45:07;;;;;;;21.30;14.97;;;7.30;99.90;;;;;;5110790;28;20039;-59
2023/04/18 05:47:33;;;;;;;23.60;16.35;;;7.30;99.90;;;;;;5098108;28;20039;-59
2023/04/18 05:49:58;;;;;;;22.43;16.63;;;7.30;99.90;;;;;;5090173;28;20072;-59
2023/04/18 05:52:25;;;;;;;23.53;16.97;;;7.40;99.90;;;;;;5101176;28;20396;-58
2023/04/18 05:54:51;;;;;;;20.02;14.95;;;7.40;99.90;;;;;;5096178;28;20293;-55
2023/04/18 05:57:16;;;;;;;20.40;15.95;;;7.40;99.90;;;;;;5111268;28;20050;-59
2023/04/18 05:59:42;;;;;;;22.13;17.07;;;7.40;99.90;;;;;;5097537;28;20036;-60
2023/04/18 06:02:11;;;;;;;20.35;15.52;;;7.40;99.90;;;;;;5090739;28;20040;-58
2023/04/18 06:04:38;;;;;;;24.23;15.88;;;7.40;99.90;;;;;;5090523;28;20047;-57
2023/04/18 06:07:04;;;;;;;21.25;15.32;;;7.40;99.90;;;;;;5090438;28;20566;-57
2023/04/18 06:09:30;;;;;;;20.17;16.25;;;7.50;99.90;;;;;;5089577;28;20052;-58
2023/04/18 06:11:56;;;;;;;23.20;15.70;;;7.60;99.90;;;;;;5090841;28;20416;-58
2023/04/18 06:14:22;;;;;;;26.35;16.55;;;7.60;99.90;;;;;;5101948;28;20036;-58
2023/04/18 06:16:47;;;;;;;25.97;15.13;;;7.70;99.90;;;;;;5091143;28;20687;-57
2023/04/18 06:19:13;;;;;;;20.02;13.88;;;7.90;99.90;;;;;;5100456;28;20140;-58
2023/04/18 06:21:40;;;;;;;24.37;15.27;;;7.90;99.90;;;;;;5110751;28;20040;-58
2023/04/18 06:24:06;;;;;;;20.05;14.90;;;8.00;99.90;;;;;;5107451;28;20286;-58
2023/04/18 06:26:32;;;;;;;21.93;15.90;;;8.10;99.90;;;;;;5090323;28;20043;-57
2023/04/18 06:28:57;;;;;;;22.73;15.53;;;8.20;99.90;;;;;;5094504;28;20453;-56
2023/04/18 06:31:23;;;;;;;19.90;15.67;;;8.20;99.90;;;;;;5109633;28;20277;-58
2023/04/18 06:33:48;;;;;;;20.70;15.63;;;8.30;99.90;;;;;;5097872;28;20050;-56
2023/04/18 06:36:14;;;;;;;24.47;16.50;;;8.40;99.90;;;;;;5107440;28;20063;-57
2023/04/18 06:38:40;;;;;;;33.13;16.40;;;8.40;99.90;;;;;;5093336;28;20791;-57
2023/04/18 06:41:05;;;;;;;76.93;20.17;;;8.50;99.90;;;;;;5094362;28;20492;-57
2023/04/18 06:43:31;;;;;;;19.57;15.20;;;8.50;99.90;;;;;;5092604;28;20035;-57
2023/04/18 06:45:58;;;;;;;30.93;17.60;;;8.60;99.90;;;;;;5095143;28;20034;-59
2023/04/18 06:48:23;;;;;;;22.90;13.95;;;8.60;99.90;;;;;;5090440;28;20386;-59
2023/04/18 06:50:49;;;;;;;21.77;15.40;;;8.60;99.90;;;;;;5090987;28;20046;-58
2023/04/18 06:53:15;;;;;;;23.50;14.83;;;8.60;99.90;;;;;;5090080;28;20077;-58
2023/04/18 06:55:40;;;;;;;22.90;14.03;;;8.70;99.90;;;;;;5089225;28;20043;-59
2023/04/18 06:58:07;;;;;;;27.20;16.25;;;8.70;99.90;;;;;;5091221;28;20404;-58
2023/04/18 07:00:32;;;;;;;19.65;14.63;;;8.70;99.90;;;;;;5091410;28;20386;-58
2023/04/18 07:02:58;;;;;;;22.70;15.37;;;8.70;99.90;;;;;;5092165;28;20042;-59
2023/04/18 07:05:24;;;;;;;23.13;15.50;;;8.70;99.90;;;;;;5090593;28;20058;-59
2023/04/18 07:07:50;;;;;;;19.37;13.97;;;8.70;99.90;;;;;;5094855;28;20040;-59
2023/04/18 07:10:15;;;;;;;19.45;14.93;;;8.70;99.90;;;;;;5093689;28;20088;-59
2023/04/18 07:12:41;;;;;;;17.07;14.10;;;8.80;99.90;;;;;;5092856;28;20126;-57
2023/04/18 07:15:07;;;;;;;18.57;13.70;;;8.80;99.90;;;;;;5074423;28;20035;-59
2023/04/18 07:17:33;;;;;;;18.33;13.68;;;8.90;99.90;;;;;;5091815;28;20046;-58
2023/04/18 07:19:58;;;;;;;20.77;13.97;;;9.00;99.90;;;;;;5091220;28;20024;-58
2023/04/18 07:22:24;;;;;;;18.67;15.17;;;9.00;99.90;;;;;;5098609;28;20637;-58
2023/04/18 07:24:49;;;;;;;20.60;14.57;;;9.20;99.90;;;;;;5097776;28;20058;-56
2023/04/18 07:27:15;;;;;;;18.70;14.53;;;9.30;99.90;;;;;;5094008;28;20390;-58
2023/04/18 07:29:41;;;;;;;18.77;14.27;;;9.40;99.90;;;;;;5093732;28;20042;-59
2023/04/18 07:32:06;;;;;;;18.13;14.03;;;9.40;99.90;;;;;;5099170;27;20329;-59
2023/04/18 07:34:34;;;;;;;19.63;13.48;;;9.50;99.90;;;;;;5094737;28;20036;-59
2023/04/18 07:37:00;;;;;;;18.40;14.85;;;9.50;99.90;;;;;;5098410;28;20446;-57
2023/04/18 07:39:26;;;;;;;23.80;15.90;;;9.50;99.90;;;;;;5092843;28;20085;-58
2023/04/18 07:41:51;;;;;;;20.67;15.77;;;9.50;99.90;;;;;;5097730;28;20067;-59
2023/04/18 07:44:17;;;;;;;24.67;15.13;;;9.50;99.90;;;;;;5095748;28;20282;-58
2023/04/18 07:46:43;;;;;;;16.75;14.15;;;9.50;99.90;;;;;;5096555;28;20824;-58
2023/04/18 07:49:08;;;;;;;21.53;15.07;;;9.60;99.90;;;;;;5094805;28;20043;-58
2023/04/18 07:51:34;;;;;;;21.57;15.70;;;9.60;99.90;;;;;;5095217;28;20296;-58
2023/04/18 07:54:00;;;;;;;23.58;16.88;;;9.60;99.90;;;;;;5095232;28;20044;-58
2023/04/18 07:56:27;;;;;;;19.03;14.03;;;9.60;99.90;;;;;;5093334;28;20062;-57
2023/04/18 07:58:52;;;;;;;19.98;15.18;;;9.70;99.90;;;;;;5091213;27;20032;-59
2023/04/18 08:01:22;;;;;;;20.17;14.87;;;9.80;99.90;;;;;;5096226;27;20437;-59
2023/04/18 08:03:47;;;;;;;20.02;16.55;;;9.90;99.90;;;;;;5097255;28;20047;-58
2023/04/18 08:06:13;;;;;;;23.23;17.17;;;10.00;99.90;;;;;;5099189;28;20444;-58
2023/04/18 08:08:39;;;;;;;19.73;17.17;;;10.00;99.90;;;;;;5093889;28;20129;-58
2023/04/18 08:11:04;;;;;;;19.35;15.90;;;10.10;99.90;;;;;;5096951;28;20143;-58
2023/04/18 08:13:30;;;;;;;22.02;16.13;;;10.00;99.90;;;;;;5094958;28;20425;-59
2023/04/18 08:15:58;;;;;;;17.97;15.07;;;10.00;99.90;;;;;;5098854;28;20455;-58
2023/04/18 08:18:24;;;;;;;20.75;16.80;;;9.90;99.90;;;;;;5095752;28;20624;-58
2023/04/18 08:20:50;;;;;;;22.45;16.80;;;9.90;99.90;;;;;;5096641;28;20143;-58
2023/04/18 08:23:15;;;;;;;20.88;16.88;;;9.90;99.90;;;;;;5096705;28;20127;-58
2023/04/18 08:25:41;;;;;;;21.67;16.20;;;9.90;99.90;;;;;;5092883;28;20416;-58
2023/04/18 08:28:07;;;;;;;19.57;15.43;;;9.90;99.90;;;;;;5096387;28;20035;-57
2023/04/18 08:30:32;;;;;;;23.60;16.45;;;10.00;99.90;;;;;;5095742;28;20043;-58
2023/04/18 08:32:59;;;;;;;26.70;16.85;;;10.00;99.90;;;;;;5096571;28;20050;-58
2023/04/18 08:35:25;;;;;;;19.40;15.35;;;10.10;99.90;;;;;;5097685;28;20039;-58
2023/04/18 08:37:50;;;;;;;24.52;17.30;;;10.20;99.90;;;;;;5093730;28;20085;-58
2023/04/18 08:40:17;;;;;;;19.90;15.13;;;10.30;99.90;;;;;;5098900;28;20043;-56
2023/04/18 08:42:43;;;;;;;19.23;15.75;;;10.40;99.90;;;;;;5092295;28;20042;-59
2023/04/18 08:45:11;;;;;;;;;;;10.50;99.90;;;;;;5095403;28;20190;-58
2023/04/18 08:47:36;;;;;;;21.50;16.73;;;10.60;99.90;;;;;;5095549;28;19926;-58
2023/04/18 08:50:02;;;;;;;22.33;16.70;;;10.70;99.90;;;;;;5095222;28;20312;-58
2023/04/18 08:52:30;;;;;;;19.98;15.18;;;10.80;99.90;;;;;;5094822;28;20135;-59
2023/04/18 08:54:56;;;;;;;22.45;15.88;;;10.90;99.90;;;;;;5095070;28;20063;-59
2023/04/18 08:57:29;;;;;;;22.23;16.97;;;11.10;99.90;;;;;;5094641;28;20056;-59
2023/04/18 08:59:56;;;;;;;21.63;14.75;;;11.20;99.90;;;;;;5097646;28;20032;-59
2023/04/18 09:02:37;;;;;;;20.63;16.33;;;11.30;99.90;;;;;;5092528;28;20400;-58
2023/04/18 09:05:09;;;;;;;20.15;16.60;;;11.40;99.90;;;;;;5097234;28;20391;-58
2023/04/18 09:07:35;;;;;;;22.52;16.45;;;11.60;99.90;;;;;;5091761;28;20046;-59
2023/04/18 09:10:00;;;;;;;22.00;16.13;;;11.60;99.90;;;;;;5094954;28;20027;-58
2023/04/18 09:12:27;;;;;;;18.67;15.98;;;11.60;99.90;;;;;;5095248;28;20032;-58
2023/04/18 09:15:08;;;;;;;;;;;11.60;99.90;;;;;;5095014;27;20040;-58
2023/04/18 09:17:41;;;;;;;20.85;15.32;;;11.60;99.90;;;;;;5090537;28;20026;-58
2023/04/18 09:20:09;;;;;;;21.02;16.27;;;11.70;99.90;;;;;;5093807;28;20031;-58
2023/04/18 09:22:51;;;;;;;20.15;16.20;;;11.80;99.90;;;;;;5090840;28;20217;-58
2023/04/18 09:25:33;;;;;;;25.27;15.50;;;11.80;99.90;;;;;;5093200;28;20667;-58
2023/04/18 09:28:00;;;;;;;24.35;15.52;;;11.90;99.90;;;;;;5093478;28;20477;-58
2023/04/18 09:30:38;;;;;;;29.30;17.60;;;11.90;99.90;;;;;;5092294;28;20409;-59
2023/04/18 09:33:06;;;;;;;25.17;16.00;;;12.00;99.90;;;;;;5091423;28;20138;-59
2023/04/18 09:35:32;;;;;;;19.05;14.85;;;12.00;99.90;;;;;;5093543;28;20039;-59
2023/04/18 09:37:58;;;;;;;23.40;15.35;;;12.00;99.90;;;;;;5093263;28;20035;-59
2023/04/18 09:40:23;;;;;;;18.57;15.23;;;11.90;99.90;;;;;;5094661;28;20055;-58
2023/04/18 09:42:52;;;;;;;18.20;13.57;;;11.90;99.90;;;;;;5095668;28;20043;-57
2023/04/18 09:45:18;;;;;;;20.50;14.60;;;11.90;99.90;;;;;;5092752;28;20036;-59
2023/04/18 09:47:43;;;;;;;18.48;14.85;;;11.90;99.90;;;;;;5090256;28;20105;-57
2023/04/18 09:50:10;;;;;;;17.53;14.23;;;11.90;99.90;;;;;;5092168;28;20040;-58
2023/04/18 09:52:36;;;;;;;;;;;11.90;99.90;;;;;;5092524;28;20717;-58
2023/04/18 09:55:04;;;;;;;21.42;15.23;;;11.90;99.90;;;;;;5092414;28;19927;-59
2023/04/18 09:57:31;;;;;;;18.00;14.52;;;12.10;99.90;;;;;;5092658;28;20114;-57
2023/04/18 10:00:16;;;;;;;22.80;15.05;;;12.30;99.90;;;;;;5090554;28;20727;-59
2023/04/18 10:03:06;;;;;;;19.48;14.98;;;12.30;99.90;;;;;;5091536;28;20456;-59
2023/04/18 10:05:40;;;;;;;21.27;15.02;;;12.30;99.90;;;;;;5093916;28;20047;-59
2023/04/18 10:08:06;;;;;;;19.17;14.25;;;12.30;99.90;;;;;;5088738;28;20105;-59
2023/04/18 10:10:32;;;;;;;19.67;14.90;;;12.30;99.90;;;;;;5095358;28;20042;-57
2023/04/18 10:13:00;;;;;;;18.08;14.65;;;12.30;99.90;;;;;;5095701;28;20036;-58
2023/04/18 10:15:28;;;;;;;17.48;13.40;;;12.30;99.90;;;;;;5091618;28;20050;-58
2023/04/18 10:17:55;;;;;;;20.00;14.00;;;12.40;99.90;;;;;;5093866;28;20027;-59
2023/04/18 10:20:28;;;;;;;16.30;13.48;;;12.40;99.90;;;;;;5091337;28;20067;-57
2023/04/18 10:22:55;;;;;;;20.10;13.32;;;12.40;99.90;;;;;;5094601;28;20036;-58
2023/04/18 10:25:39;;;;;;;17.50;13.55;;;12.50;99.90;;;;;;5093149;28;20036;-59
2023/04/18 10:28:06;;;;;;;15.57;12.35;;;12.50;99.90;;;;;;5089826;28;20039;-59
2023/04/18 10:30:41;;;;;;;16.88;12.90;;;12.50;99.90;;;;;;5091696;28;20481;-59
2023/04/18 10:33:24;;;;;;;17.60;12.48;;;12.40;99.90;;;;;;5095609;28;20036;-59
2023/04/18 10:35:59;;;;;;;13.90;11.77;;;12.40;99.90;;;;;;5096960;28;20047;-59
2023/04/18 10:38:25;;;;;;;14.93;12.43;;;12.40;99.90;;;;;;5092740;28;20031;-59
2023/04/18 10:40:50;;;;;;;16.58;13.07;;;12.50;99.90;;;;;;5091909;27;20449;-58
2023/04/18 10:43:16;;;;;;;17.67;12.57;;;12.70;99.90;;;;;;5093536;28;20043;-61
2023/04/18 10:45:41;;;;;;;19.85;12.85;;;12.90;99.90;;;;;;5091794;28;20290;-58
2023/04/18 10:48:24;;;;;;;14.37;12.10;;;13.10;99.90;;;;;;5093244;28;20481;-59
2023/04/18 10:51:11;;;;;;;17.05;12.48;;;13.30;99.90;;;;;;5093265;28;20359;-57
2023/04/18 10:53:36;;;;;;;15.73;12.75;;;13.40;99.90;;;;;;5091444;28;20024;-59
2023/04/18 10:56:03;;;;;;;15.60;12.37;;;13.40;99.90;;;;;;5091245;28;20032;-59
2023/04/18 10:58:30;;;;;;;;;;;13.50;99.90;;;;;;5092591;28;20299;-59
2023/04/18 11:00:56;;;;;;;16.17;12.75;;;13.50;99.90;;;;;;5098869;28;19916;-59
2023/04/18 11:03:32;;;;;;;15.75;11.00;;;13.60;99.90;;;;;;5091249;28;20040;-58
2023/04/18 11:06:01;;;;;;;14.85;12.85;;;13.60;99.90;;;;;;5089822;28;20040;-59
2023/04/18 11:08:27;;;;;;;18.70;13.93;;;13.70;99.90;;;;;;5092089;28;20047;-57
2023/04/18 11:10:57;;;;;;;16.17;12.82;;;13.80;99.90;;;;;;5096312;28;20038;-59
2023/04/18 11:13:22;;;;;;;17.08;13.57;;;13.90;99.90;;;;;;5092407;28;20044;-59
2023/04/18 11:15:48;;;;;;;19.80;13.23;;;13.80;99.90;;;;;;5094092;28;20489;-59
2023/04/18 11:18:14;;;;;;;18.70;12.57;;;13.70;99.90;;;;;;5092114;28;20043;-59
2023/04/18 11:20:48;;;;;;;14.07;11.88;;;13.80;99.90;;;;;;5097232;28;20404;-59
2023/04/18 11:23:16;;;;;;;16.98;11.60;;;13.90;99.90;;;;;;5094172;28;20071;-59
2023/04/18 11:25:43;;;;;;;15.88;11.32;;;14.00;99.90;;;;;;5095439;28;20094;-59
2023/04/18 11:28:12;;;;;;;16.13;13.18;;;14.10;99.90;;;;;;5093474;28;20486;-59
2023/04/18 11:30:41;;;;;;;17.17;11.77;;;14.20;99.90;;;;;;5092871;28;20047;-59
2023/04/18 11:33:10;;;;;;;12.95;10.73;;;14.30;99.90;;;;;;5095704;28;20036;-59
2023/04/18 11:35:45;;;;;;;15.02;9.73;;;14.40;99.90;;;;;;5096728;28;20378;-59
2023/04/18 11:38:14;;;;;;;12.85;10.30;;;14.40;99.90;;;;;;5094547;28;20536;-59
2023/04/18 11:40:47;;;;;;;13.27;10.82;;;14.50;99.90;;;;;;5087737;28;20052;-60
2023/04/18 11:43:22;;;;;;;11.13;9.32;;;14.60;99.90;;;;;;5094956;28;20354;-59
2023/04/18 11:45:58;;;;;;;11.80;10.60;;;14.60;99.90;;;;;;5091276;28;20048;-59
2023/04/18 11:48:40;;;;;;;11.38;10.07;;;14.40;99.40;;;;;;5092853;28;20445;-59
2023/04/18 11:51:07;;;;;;;11.90;10.68;;;14.40;99.70;;;;;;5093779;28;20046;-59
2023/04/18 11:53:34;;;;;;;13.43;10.95;;;14.40;99.70;;;;;;5089424;28;20047;-59
2023/04/18 11:56:02;;;;;;;11.60;10.25;;;14.40;99.20;;;;;;5089644;28;20080;-60
2023/04/18 11:58:32;;;;;;;14.48;10.50;;;14.40;99.90;;;;;;5090908;28;20040;-59
2023/04/18 12:00:59;;;;;;;12.93;9.65;;;14.40;99.90;;;;;;5086646;28;20435;-59
2023/04/18 12:03:26;;;;;;;15.90;10.73;;;14.50;99.80;;;;;;5092634;28;20082;-59
2023/04/18 12:06:01;;;;;;;12.07;10.68;;;14.60;99.90;;;;;;5089937;28;20408;-58
2023/04/18 12:08:29;;;;;;;14.18;10.38;;;14.70;99.90;;;;;;5085999;28;20039;-59
2023/04/18 12:10:55;;;;;;;16.25;10.05;;;14.80;99.90;;;;;;5091978;28;20118;-59
2023/04/18 12:13:30;;;;;;;10.18;9.18;;;14.90;99.30;;;;;;5095361;28;20119;-59
2023/04/18 12:15:55;;;;;;;10.55;8.98;;;15.00;99.70;;;;;;5092914;28;20746;-54
2023/04/18 12:18:23;;;;;;;10.20;9.00;;;15.20;99.60;;;;;;5090900;28;20039;-57
2023/04/18 12:20:55;;;;;;;11.27;9.40;;;15.30;99.40;;;;;;5091717;28;20054;-56
2023/04/18 12:23:32;;;;;;;14.02;8.32;;;15.50;99.70;;;;;;5097087;28;20424;-55
2023/04/18 12:26:00;;;;;;;11.88;8.68;;;15.60;98.70;;;;;;5090488;28;20055;-58
2023/04/18 12:28:26;;;;;;;35.35;10.10;;;15.70;98.50;;;;;;5093678;28;20040;-58
2023/04/18 12:30:51;;;;;;;131.25;18.05;;;15.80;98.10;;;;;;5095693;28;20039;-57
2023/04/18 12:33:18;;;;;;;12.57;8.75;;;15.90;99.00;;;;;;5095053;28;20035;-58
2023/04/18 12:35:45;;;;;;;20.08;9.07;;;16.00;98.40;;;;;;5087506;28;20047;-58